createdAt,value
2019-02-11T00:01:09.864Z,3.70
2019-02-11T00:03:39.210Z,2.67
2019-02-11T00:06:08.767Z,2.90
2019-02-11T00:08:38.321Z,2.67
2019-02-11T00:11:07.657Z,3.20
2019-02-11T00:13:37.383Z,2.77
2019-02-11T00:16:06.650Z,2.90
2019-02-11T00:18:35.909Z,3.40
2019-02-11T00:21:05.520Z,3.10
2019-02-11T00:23:35.189Z,3.20
2019-02-11T00:26:04.934Z,3.33
2019-02-11T00:28:34.900Z,3.43
2019-02-11T00:31:04.187Z,3.03
2019-02-11T00:33:33.827Z,3.17
2019-02-11T00:36:03.106Z,2.53
2019-02-11T00:38:32.802Z,3.30
2019-02-11T00:41:02.112Z,3.30
2019-02-11T00:43:31.379Z,2.97
2019-02-11T00:46:01.289Z,2.57
2019-02-11T00:48:30.851Z,2.60
2019-02-11T00:51:00.445Z,3.17
2019-02-11T00:53:29.698Z,2.60
2019-02-11T00:55:58.946Z,2.33
2019-02-11T00:58:28.468Z,2.47
2019-02-11T01:00:57.759Z,2.23
2019-02-11T01:03:27.359Z,2.00
2019-02-11T01:05:56.682Z,2.00
2019-02-11T01:08:26.268Z,2.00
2019-02-11T01:10:55.549Z,2.20
2019-02-11T01:13:27.835Z,1.43
2019-02-11T01:15:56.129Z,3.23
2019-02-11T01:18:25.681Z,1.83
2019-02-11T01:20:55.229Z,1.43
2019-02-11T01:23:24.517Z,1.10
2019-02-11T01:25:54.037Z,1.63
2019-02-11T01:28:23.398Z,1.37
2019-02-11T01:30:52.679Z,1.73
2019-02-11T01:33:22.047Z,2.63
2019-02-11T01:35:51.394Z,5.53
2019-02-11T01:38:21.006Z,0.90
2019-02-11T01:40:50.550Z,2.47
2019-02-11T01:43:19.888Z,2.23
2019-02-11T01:45:49.554Z,1.70
2019-02-11T01:48:19.084Z,2.33
2019-02-11T01:50:48.394Z,0.80
2019-02-11T01:53:17.942Z,1.23
2019-02-11T01:55:47.348Z,1.00
2019-02-11T01:58:17.056Z,3.80
2019-02-11T02:00:46.580Z,3.07
2019-02-11T02:03:16.396Z,1.70
2019-02-11T02:05:45.667Z,2.93
2019-02-11T02:08:15.415Z,2.70
2019-02-11T02:10:44.780Z,2.57
2019-02-11T02:13:14.027Z,3.03
2019-02-11T02:15:43.832Z,2.37
2019-02-11T02:18:13.097Z,6.03
2019-02-11T02:20:42.473Z,3.60
2019-02-11T02:23:12.044Z,1.40
2019-02-11T02:25:41.338Z,1.27
2019-02-11T02:28:10.884Z,1.77
2019-02-11T02:30:40.199Z,1.00
2019-02-11T02:33:09.483Z,1.50
2019-02-11T02:35:38.771Z,5.43
2019-02-11T02:38:08.084Z,1.87
2019-02-11T02:40:37.750Z,5.93
2019-02-11T02:43:07.284Z,7.47
2019-02-11T02:45:36.863Z,6.43
2019-02-11T02:48:06.875Z,4.20
2019-02-11T02:50:36.468Z,6.37
2019-02-11T02:53:05.719Z,5.07
2019-02-11T02:55:35.375Z,8.67
2019-02-11T02:58:04.615Z,7.03
2019-02-11T03:00:34.491Z,8.63
2019-02-11T03:03:03.747Z,9.17
2019-02-11T03:05:33.035Z,5.00
2019-02-11T03:08:02.355Z,8.73
2019-02-11T03:10:32.033Z,12.47
2019-02-11T03:13:06.151Z,5.63
2019-02-11T03:15:35.533Z,12.47
2019-02-11T03:18:05.013Z,7.60
2019-02-11T03:20:35.735Z,10.83
2019-02-11T03:23:04.978Z,6.17
2019-02-11T03:25:34.557Z,9.77
2019-02-11T03:28:03.853Z,11.67
2019-02-11T03:30:33.134Z,5.53
2019-02-11T03:33:02.409Z,6.80
2019-02-11T03:35:31.675Z,7.80
2019-02-11T03:38:01.279Z,6.17
2019-02-11T03:40:30.891Z,6.47
2019-02-11T03:43:00.502Z,4.53
2019-02-11T03:45:29.773Z,3.43
2019-02-11T03:47:59.421Z,7.87
2019-02-11T03:50:29.113Z,4.57
2019-02-11T03:52:58.387Z,4.17
2019-02-11T03:55:27.922Z,5.83
2019-02-11T03:57:57.176Z,5.10
2019-02-11T04:00:26.725Z,8.90
2019-02-11T04:02:56.039Z,11.00
2019-02-11T04:05:25.627Z,11.63
2019-02-11T04:07:55.245Z,12.97
2019-02-11T04:10:24.759Z,15.63
2019-02-11T04:12:54.498Z,20.67
2019-02-11T04:15:24.131Z,17.33
2019-02-11T04:17:53.771Z,16.50
2019-02-11T04:20:23.378Z,17.13
2019-02-11T04:22:52.975Z,18.40
2019-02-11T04:25:22.583Z,19.77
2019-02-11T04:27:51.868Z,20.40
2019-02-11T04:30:21.149Z,17.63
2019-02-11T04:32:50.489Z,21.77
2019-02-11T04:35:19.750Z,27.10
2019-02-11T04:37:49.385Z,22.23
2019-02-11T04:40:18.689Z,22.60
2019-02-11T04:42:47.938Z,17.80
2019-02-11T04:45:17.819Z,15.70
2019-02-11T04:47:47.082Z,29.17
2019-02-11T04:50:17.013Z,26.63
2019-02-11T04:52:46.614Z,20.40
2019-02-11T04:55:15.914Z,21.47
2019-02-11T04:57:45.514Z,27.90
2019-02-11T05:00:15.331Z,14.53
2019-02-11T05:02:44.843Z,17.30
2019-02-11T05:05:14.771Z,19.77
2019-02-11T05:07:44.083Z,21.23
2019-02-11T05:10:13.372Z,29.03
2019-02-11T05:12:42.626Z,27.63
2019-02-11T05:15:12.102Z,24.60
2019-02-11T05:17:41.462Z,28.57
2019-02-11T05:20:10.772Z,20.97
2019-02-11T05:22:40.060Z,23.00
2019-02-11T05:25:09.672Z,13.20
2019-02-11T05:27:39.402Z,19.17
2019-02-11T05:30:09.599Z,18.70
2019-02-11T05:32:40.055Z,16.87
2019-02-11T05:35:09.652Z,25.00
2019-02-11T05:37:39.255Z,21.17
2019-02-11T05:40:10.313Z,18.77
2019-02-11T05:42:39.589Z,23.87
2019-02-11T05:45:08.848Z,16.70
2019-02-11T05:47:38.128Z,18.00
2019-02-11T05:50:08.133Z,14.40
2019-02-11T05:52:37.384Z,21.50
2019-02-11T05:55:06.938Z,32.03
2019-02-11T05:57:36.511Z,21.47
2019-02-11T06:00:06.488Z,18.30
2019-02-11T06:02:35.735Z,25.47
2019-02-11T06:05:05.838Z,17.40
2019-02-11T06:07:35.446Z,18.83
2019-02-11T06:10:05.353Z,19.00
2019-02-11T06:12:34.601Z,22.40
2019-02-11T06:15:04.950Z,24.57
2019-02-11T06:17:34.331Z,23.40
2019-02-11T06:20:03.608Z,25.27
2019-02-11T06:22:32.858Z,16.47
2019-02-11T06:25:02.135Z,21.73
2019-02-11T06:27:31.663Z,18.00
2019-02-11T06:30:01.283Z,23.50
2019-02-11T06:32:30.535Z,17.87
2019-02-11T06:34:59.822Z,20.33
2019-02-11T06:37:29.078Z,21.80
2019-02-11T06:39:58.428Z,22.33
2019-02-11T06:42:27.956Z,21.23
2019-02-11T06:44:57.218Z,25.33
2019-02-11T06:47:26.560Z,22.20
2019-02-11T06:49:55.895Z,22.77
2019-02-11T06:52:25.175Z,20.73
2019-02-11T06:54:55.441Z,24.03
2019-02-11T06:57:24.848Z,20.63
2019-02-11T06:59:54.147Z,20.97
2019-02-11T07:02:23.741Z,25.67
2019-02-11T07:04:53.566Z,19.00
2019-02-11T07:07:22.927Z,17.93
2019-02-11T07:09:52.437Z,18.90
2019-02-11T07:12:22.355Z,15.53
2019-02-11T07:14:51.607Z,22.37
2019-02-11T07:17:20.879Z,13.13
2019-02-11T07:19:50.181Z,20.17
2019-02-11T07:22:19.457Z,24.33
2019-02-11T07:24:49.071Z,28.73
2019-02-11T07:27:18.380Z,23.60
2019-02-11T07:29:47.966Z,20.60
2019-02-11T07:32:17.245Z,14.87
2019-02-11T07:34:46.894Z,24.50
2019-02-11T07:37:16.191Z,24.67
2019-02-11T07:39:45.537Z,16.00
2019-02-11T07:42:49.403Z,20.50
2019-02-11T07:45:36.909Z,21.13
2019-02-11T07:48:06.523Z,26.30
2019-02-11T07:50:36.815Z,18.63
2019-02-11T07:53:06.154Z,19.07
2019-02-11T07:55:35.406Z,19.53
2019-02-11T07:58:05.081Z,27.57
2019-02-11T08:00:34.408Z,22.63
2019-02-11T08:03:03.660Z,26.90
2019-02-11T08:05:33.690Z,14.63
2019-02-11T08:08:02.983Z,23.57
2019-02-11T08:10:32.574Z,23.93
2019-02-11T08:13:02.606Z,31.57
2019-02-11T08:15:38.389Z,26.57
2019-02-11T08:18:02.900Z,23.97
2019-02-11T08:20:32.455Z,22.90
2019-02-11T08:23:02.081Z,20.57
2019-02-11T08:25:31.383Z,15.33
2019-02-11T08:28:00.640Z,23.97
2019-02-11T08:30:29.951Z,22.77
2019-02-11T08:32:59.555Z,26.30
2019-02-11T08:35:29.115Z,25.20
2019-02-11T08:37:58.458Z,28.97
2019-02-11T08:40:28.104Z,18.90
2019-02-11T08:42:57.380Z,26.60
2019-02-11T08:45:26.979Z,27.57
2019-02-11T08:47:56.236Z,25.90
2019-02-11T08:50:25.568Z,19.87
2019-02-11T08:52:55.280Z,16.90
2019-02-11T08:55:24.547Z,16.00
2019-02-11T08:57:53.806Z,17.73
2019-02-11T09:00:23.451Z,21.47
2019-02-11T09:02:52.855Z,30.03
2019-02-11T09:05:22.433Z,21.40
2019-02-11T09:07:51.714Z,23.73
2019-02-11T09:10:20.987Z,22.00
2019-02-11T09:12:50.250Z,19.33
2019-02-11T09:15:19.540Z,20.20
2019-02-11T09:17:48.874Z,23.10
2019-02-11T09:20:18.172Z,20.03
2019-02-11T09:22:47.459Z,21.87
2019-02-11T09:25:16.730Z,30.30
2019-02-11T09:27:46.330Z,17.20
2019-02-11T09:30:16.271Z,17.20
2019-02-11T09:32:45.952Z,19.77
2019-02-11T09:35:15.199Z,15.87
2019-02-11T09:37:44.743Z,17.13
2019-02-11T09:40:14.978Z,15.40
2019-02-11T09:42:44.443Z,16.93
2019-02-11T09:45:17.088Z,22.70
2019-02-11T09:47:46.504Z,17.33
2019-02-11T09:50:28.471Z,17.77
2019-02-11T09:52:57.837Z,17.67
2019-02-11T09:55:29.049Z,19.53
2019-02-11T09:57:58.377Z,16.50
2019-02-11T10:00:28.040Z,17.27
2019-02-11T10:02:57.302Z,12.83
2019-02-11T10:05:26.615Z,16.73
2019-02-11T10:07:55.989Z,15.77
2019-02-11T10:10:25.860Z,12.73
2019-02-11T10:12:55.226Z,17.73
2019-02-11T10:15:24.608Z,20.33
2019-02-11T10:17:54.339Z,20.37
2019-02-11T10:20:23.630Z,18.07
2019-02-11T10:22:52.911Z,14.50
2019-02-11T10:25:23.865Z,20.50
2019-02-11T10:27:54.728Z,18.13
2019-02-11T10:30:24.408Z,16.63
2019-02-11T10:32:53.675Z,16.73
2019-02-11T10:35:23.232Z,14.93
2019-02-11T10:37:52.819Z,15.60
2019-02-11T10:40:22.382Z,19.70
2019-02-11T10:42:51.959Z,15.43
2019-02-11T10:45:21.246Z,13.90
2019-02-11T10:47:50.514Z,11.30
2019-02-11T10:50:19.831Z,20.13
2019-02-11T10:52:49.115Z,11.83
2019-02-11T10:55:18.630Z,13.30
2019-02-11T10:57:48.030Z,18.97
2019-02-11T11:00:19.643Z,14.07
2019-02-11T11:02:48.922Z,18.03
2019-02-11T11:05:18.327Z,15.37
2019-02-11T11:07:48.331Z,15.67
2019-02-11T11:10:21.209Z,17.13
2019-02-11T11:12:51.928Z,17.77
2019-02-11T11:15:25.044Z,13.90
2019-02-11T11:17:54.643Z,19.67
2019-02-11T11:20:23.936Z,20.67
2019-02-11T11:22:53.278Z,19.57
2019-02-11T11:25:22.555Z,13.07
2019-02-11T11:27:51.998Z,13.90
2019-02-11T11:30:21.375Z,19.00
2019-02-11T11:32:50.642Z,17.70
2019-02-11T11:35:20.540Z,22.67
2019-02-11T11:37:50.012Z,18.73
2019-02-11T11:40:19.411Z,15.93
2019-02-11T11:43:07.780Z,11.67
2019-02-11T11:45:37.137Z,17.43
2019-02-11T11:48:07.476Z,14.73
2019-02-11T11:50:36.762Z,15.47
2019-02-11T11:53:06.025Z,15.27
2019-02-11T11:55:35.320Z,16.60
2019-02-11T11:58:04.593Z,14.90
2019-02-11T12:00:34.918Z,15.70
2019-02-11T12:03:05.641Z,13.87
2019-02-11T12:05:35.530Z,16.03
2019-02-11T12:08:04.831Z,15.30
2019-02-11T12:10:34.510Z,14.33
2019-02-11T12:13:22.029Z,13.93
2019-02-11T12:15:34.888Z,12.23
2019-02-11T12:18:04.270Z,17.53
2019-02-11T12:20:34.360Z,15.37
2019-02-11T12:23:04.007Z,21.33
2019-02-11T12:25:33.707Z,14.90
2019-02-11T12:28:03.150Z,18.03
2019-02-11T12:30:32.462Z,18.83
2019-02-11T12:33:01.822Z,13.80
2019-02-11T12:35:31.248Z,15.77
2019-02-11T12:38:00.931Z,13.33
2019-02-11T12:40:30.716Z,12.63
2019-02-11T12:43:00.084Z,13.03
2019-02-11T12:45:29.715Z,14.30
2019-02-11T12:47:59.042Z,17.40
2019-02-11T12:50:28.449Z,14.80
2019-02-11T12:52:57.856Z,12.87
2019-02-11T12:55:27.491Z,21.37
2019-02-11T12:57:56.831Z,12.00
2019-02-11T13:00:26.698Z,15.27
2019-02-11T13:02:56.231Z,19.33
2019-02-11T13:05:44.272Z,17.20
2019-02-11T13:07:58.602Z,17.03
2019-02-11T13:10:27.968Z,20.53
2019-02-11T13:12:57.364Z,19.67
2019-02-11T13:15:56.613Z,12.73
2019-02-11T13:17:57.824Z,11.27
2019-02-11T13:20:27.388Z,16.90
2019-02-11T13:22:56.782Z,12.60
2019-02-11T13:25:26.092Z,10.93
2019-02-11T13:27:55.526Z,14.73
2019-02-11T13:30:25.015Z,10.97
2019-02-11T13:32:54.373Z,12.73
2019-02-11T13:35:23.716Z,9.70
2019-02-11T13:37:55.048Z,19.17
2019-02-11T13:40:24.027Z,6.00
2019-02-11T13:42:53.401Z,13.20
2019-02-11T13:45:23.423Z,11.43
2019-02-11T13:47:57.067Z,12.10
2019-02-11T13:50:24.764Z,16.93
2019-02-11T13:52:54.811Z,12.77
2019-02-11T13:55:29.309Z,7.77
2019-02-11T13:57:55.513Z,7.87
2019-02-11T14:00:30.866Z,12.57
2019-02-11T14:03:00.402Z,9.63
2019-02-11T14:05:29.834Z,16.00
2019-02-11T14:08:00.878Z,10.10
2019-02-11T14:10:32.241Z,10.57
2019-02-11T14:13:04.596Z,10.63
2019-02-11T14:15:33.975Z,11.10
2019-02-11T14:18:12.284Z,5.53
2019-02-11T14:20:37.773Z,12.83
2019-02-11T14:23:07.877Z,12.97
2019-02-11T14:25:45.208Z,12.80
2019-02-11T14:28:11.369Z,5.40
2019-02-11T14:30:42.677Z,10.23
2019-02-11T14:33:11.865Z,14.13
2019-02-11T14:35:41.245Z,6.10
2019-02-11T14:38:10.612Z,7.13
2019-02-11T14:40:41.458Z,16.40
2019-02-11T14:43:10.815Z,9.50
2019-02-11T14:45:40.201Z,6.33
2019-02-11T14:48:26.689Z,7.00
2019-02-11T14:50:47.062Z,6.73
2019-02-11T14:53:19.662Z,6.10
2019-02-11T14:55:49.028Z,8.07
2019-02-11T14:58:21.691Z,10.87
2019-02-11T15:00:51.023Z,10.17
2019-02-11T15:03:20.316Z,9.20
2019-02-11T15:05:50.244Z,7.27
2019-02-11T15:08:23.051Z,6.17
2019-02-11T15:10:57.064Z,9.50
2019-02-11T15:13:23.856Z,15.53
2019-02-11T15:15:53.478Z,10.63
2019-02-11T15:18:23.403Z,7.00
2019-02-11T15:20:55.141Z,11.73
2019-02-11T15:23:26.409Z,8.40
2019-02-11T15:25:55.679Z,7.00
2019-02-11T15:28:24.993Z,11.27
2019-02-11T15:30:54.251Z,7.23
2019-02-11T15:33:23.543Z,12.17
2019-02-11T15:35:53.411Z,16.00
2019-02-11T15:38:22.735Z,12.93
2019-02-11T15:40:52.439Z,12.40
2019-02-11T15:43:22.108Z,18.17
2019-02-11T15:45:51.459Z,11.50
2019-02-11T15:48:21.021Z,16.33
2019-02-11T15:50:50.299Z,17.00
2019-02-11T15:53:19.604Z,18.87
2019-02-11T15:55:48.902Z,24.80
2019-02-11T15:58:18.221Z,20.30
2019-02-11T16:00:47.606Z,15.23
2019-02-11T16:03:17.223Z,26.43
2019-02-11T16:05:49.702Z,22.90
2019-02-11T16:08:17.585Z,18.03
2019-02-11T16:10:46.879Z,13.23
2019-02-11T16:13:16.158Z,18.00
2019-02-11T16:15:45.546Z,14.77
2019-02-11T16:18:14.845Z,16.53
2019-02-11T16:20:44.412Z,18.50
2019-02-11T16:23:13.683Z,19.50
2019-02-11T16:25:43.034Z,17.57
2019-02-11T16:28:12.999Z,17.17
2019-02-11T16:30:43.665Z,20.73
2019-02-11T16:33:12.980Z,19.33
2019-02-11T16:35:42.272Z,15.53
2019-02-11T16:38:11.667Z,26.13
2019-02-11T16:40:41.000Z,17.03
2019-02-11T16:43:10.342Z,19.43
2019-02-11T16:45:39.651Z,19.87
2019-02-11T16:48:09.417Z,23.93
2019-02-11T16:50:38.698Z,16.70
2019-02-11T16:53:08.267Z,19.07
2019-02-11T16:55:37.644Z,29.17
2019-02-11T16:58:07.046Z,24.80
2019-02-11T17:00:36.601Z,20.53
2019-02-11T17:03:05.954Z,20.83
2019-02-11T17:05:35.274Z,23.13
2019-02-11T17:08:04.534Z,17.07
2019-02-11T17:10:33.828Z,17.93
2019-02-11T17:13:03.196Z,23.07
2019-02-11T17:15:32.557Z,20.37
2019-02-11T17:18:01.834Z,16.20
2019-02-11T17:20:31.380Z,23.13
2019-02-11T17:23:00.723Z,24.83
2019-02-11T17:25:30.073Z,26.43
2019-02-11T17:27:59.368Z,27.00
2019-02-11T17:30:28.778Z,19.60
2019-02-11T17:32:58.312Z,16.53
2019-02-11T17:35:27.869Z,17.33
2019-02-11T17:37:57.142Z,29.17
2019-02-11T17:40:27.106Z,19.53
2019-02-11T17:42:56.524Z,23.23
2019-02-11T17:45:26.175Z,25.70
2019-02-11T17:47:55.738Z,20.83
2019-02-11T17:50:25.032Z,25.30
2019-02-11T17:52:55.354Z,26.33
2019-02-11T17:55:24.702Z,18.57
2019-02-11T17:57:54.121Z,25.47
2019-02-11T18:00:29.591Z,29.17
2019-02-11T18:02:59.271Z,26.77
2019-02-11T18:05:30.622Z,29.53
2019-02-11T18:08:00.035Z,27.37
2019-02-11T18:10:29.340Z,24.83
2019-02-11T18:12:58.700Z,29.23
2019-02-11T18:15:28.362Z,17.30
2019-02-11T18:17:57.764Z,21.13
2019-02-11T18:20:30.457Z,24.40
2019-02-11T18:23:00.156Z,30.17
2019-02-11T18:25:29.596Z,17.23
2019-02-11T18:28:02.375Z,23.93
2019-02-11T18:30:34.552Z,26.57
2019-02-11T18:33:03.932Z,23.23
2019-02-11T18:35:33.876Z,27.50
2019-02-11T18:38:03.752Z,20.57
2019-02-11T18:40:33.420Z,17.80
2019-02-11T18:43:03.036Z,26.57
2019-02-11T18:45:32.593Z,19.13
2019-02-11T18:48:02.235Z,20.17
2019-02-11T18:50:31.652Z,16.57
2019-02-11T18:53:04.399Z,22.23
2019-02-11T18:55:33.855Z,29.40
2019-02-11T18:58:03.431Z,18.50
2019-02-11T19:00:32.766Z,24.37
2019-02-11T19:03:02.406Z,27.33
2019-02-11T19:05:35.326Z,21.53
2019-02-11T19:08:05.359Z,25.97
2019-02-11T19:10:38.943Z,26.63
2019-02-11T19:13:16.031Z,31.17
2019-02-11T19:15:45.350Z,17.77
2019-02-11T19:18:17.735Z,26.50
2019-02-11T19:20:47.223Z,23.03
2019-02-11T19:23:17.100Z,37.27
2019-02-11T19:25:46.810Z,23.37
2019-02-11T19:28:16.131Z,27.77
2019-02-11T19:30:45.487Z,24.00
2019-02-11T19:33:15.151Z,21.23
2019-02-11T19:35:44.495Z,24.30
2019-02-11T19:38:13.821Z,29.20
2019-02-11T19:40:43.468Z,24.93
2019-02-11T19:43:12.779Z,26.00
2019-02-11T19:45:42.635Z,25.33
2019-02-11T19:48:12.327Z,25.97
2019-02-11T19:50:41.746Z,22.50
2019-02-11T19:53:12.450Z,23.03
2019-02-11T19:55:41.817Z,35.30
2019-02-11T19:58:11.097Z,27.20
2019-02-11T20:00:40.796Z,20.57
2019-02-11T20:03:10.140Z,22.20
2019-02-11T20:05:40.637Z,30.07
2019-02-11T20:08:10.210Z,27.03
2019-02-11T20:10:39.848Z,33.07
2019-02-11T20:13:09.553Z,24.90
2019-02-11T20:15:38.964Z,36.27
2019-02-11T20:18:08.457Z,26.23
2019-02-11T20:20:37.975Z,22.60
2019-02-11T20:23:07.347Z,21.80
2019-02-11T20:25:36.956Z,28.50
2019-02-11T20:28:06.822Z,32.07
2019-02-11T20:30:36.566Z,29.10
2019-02-11T20:33:06.460Z,27.83
2019-02-11T20:35:36.718Z,33.57
2019-02-11T20:38:06.397Z,22.50
2019-02-11T20:40:35.730Z,28.30
2019-02-11T20:43:05.086Z,34.10
2019-02-11T20:45:34.450Z,33.00
2019-02-11T20:48:03.739Z,30.93
2019-02-11T20:50:33.071Z,34.43
2019-02-11T20:53:02.424Z,34.90
2019-02-11T20:55:34.331Z,37.20
2019-02-11T20:58:03.991Z,32.77
2019-02-11T21:00:33.410Z,34.53
2019-02-11T21:03:08.379Z,29.77
2019-02-11T21:05:34.323Z,34.17
2019-02-11T21:08:04.068Z,29.53
2019-02-11T21:10:33.784Z,31.10
2019-02-11T21:13:03.159Z,31.17
2019-02-11T21:15:32.461Z,24.87
2019-02-11T21:18:01.858Z,30.53
2019-02-11T21:20:38.715Z,24.10
2019-02-11T21:23:10.384Z,22.93
2019-02-11T21:25:46.019Z,26.33
2019-02-11T21:28:23.163Z,32.37
2019-02-11T21:30:52.515Z,20.53
2019-02-11T21:33:21.860Z,19.47
2019-02-11T21:35:51.631Z,20.97
2019-02-11T21:38:23.628Z,26.23
2019-02-11T21:40:53.217Z,24.10
2019-02-11T21:43:22.883Z,19.00
2019-02-11T21:45:53.963Z,21.77
2019-02-11T21:48:25.059Z,18.97
2019-02-11T21:50:54.377Z,31.30
2019-02-11T21:53:23.620Z,19.07
2019-02-11T21:55:52.932Z,35.27
2019-02-11T21:58:22.346Z,62.07
2019-02-11T22:00:51.652Z,22.60
2019-02-11T22:03:20.947Z,23.30
2019-02-11T22:05:50.887Z,29.47
2019-02-11T22:08:20.163Z,26.83
2019-02-11T22:10:49.715Z,23.20
2019-02-11T22:13:18.997Z,22.60
2019-02-11T22:15:48.850Z,32.47
2019-02-11T22:18:18.720Z,25.33
2019-02-11T22:20:48.277Z,23.90
2019-02-11T22:23:17.833Z,27.33
2019-02-11T22:25:47.092Z,25.67
2019-02-11T22:28:16.393Z,31.30
2019-02-11T22:30:45.762Z,20.77
2019-02-11T22:33:15.368Z,18.13
2019-02-11T22:35:44.965Z,19.83
2019-02-11T22:38:14.545Z,23.10
2019-02-11T22:40:44.116Z,35.83
2019-02-11T22:43:13.697Z,19.63
2019-02-11T22:45:43.023Z,32.00
2019-02-11T22:48:12.670Z,26.13
2019-02-11T22:50:43.358Z,18.93
2019-02-11T22:53:12.879Z,20.30
2019-02-11T22:55:42.214Z,16.20
2019-02-11T22:58:17.529Z,21.87
2019-02-11T23:00:55.236Z,25.17
2019-02-11T23:03:24.783Z,25.43
2019-02-11T23:05:54.069Z,24.03
2019-02-11T23:08:24.450Z,21.73
2019-02-11T23:10:54.095Z,31.23
2019-02-11T23:13:23.385Z,29.30
2019-02-11T23:15:52.679Z,26.03
2019-02-11T23:18:21.963Z,28.00
2019-02-11T23:20:52.332Z,22.73
2019-02-11T23:23:22.068Z,21.87
2019-02-11T23:25:51.699Z,22.30
2019-02-11T23:28:21.254Z,19.60
2019-02-11T23:30:50.670Z,27.10
2019-02-11T23:33:20.020Z,22.53
2019-02-11T23:35:49.630Z,29.93
2019-02-11T23:38:19.259Z,24.00
2019-02-11T23:40:48.889Z,24.53
2019-02-11T23:43:18.801Z,25.40
2019-02-11T23:45:48.188Z,31.73
2019-02-11T23:48:17.574Z,24.60
2019-02-11T23:50:46.901Z,22.47
2019-02-11T23:53:17.389Z,22.40
2019-02-11T23:55:46.931Z,21.60
2019-02-11T23:58:16.645Z,25.60
